Time;durP1;ratioP1;P1;durP2;ratioP2;P2;SDS_P1;SDS_P2;PMS_P1;PMS_P2;Temp;Humidity;BMP_temperature;BMP_pressure;BME280_temperature;BME280_humidity;BME280_pressure;Samples;Min_cycle;Max_cycle;Signal;HPM_P1;HPM_P2
2023/04/08 00:01:06;;;;;;;19.20;7.28;;;;;;;;;;6198333;23;20017;-95
2023/04/08 00:03:32;;;;;;;21.05;8.25;;;;;;;;;;6199426;23;20016;-95
2023/04/08 00:06:02;;;;;;;19.65;8.15;;;;;;;;;;6200503;23;20087;-96
2023/04/08 00:08:28;;;;;;;17.48;8.55;;;;;;;;;;6225924;23;20015;-95
2023/04/08 00:10:54;;;;;;;18.90;8.25;;;;;;;;;;6226900;23;20067;-94
2023/04/08 00:13:23;;;;;;;18.58;8.73;;;;;;;;;;6226582;23;20386;-95
2023/04/08 00:15:50;;;;;;;17.63;8.13;;;;;;;;;;6228925;23;20057;-95
2023/04/08 00:18:38;;;;;;;;;;;;;;;;;;;;;
2023/04/08 00:21:15;;;;;;;;;;;;;;;;;;;;;
2023/04/08 00:23:43;;;;;;;15.32;7.72;;;;;;;;;;6220032;23;20309;-95
2023/04/08 00:26:09;;;;;;;16.83;8.15;;;;;;;;;;6227584;23;20003;-95
2023/04/08 00:28:36;;;;;;;14.95;8.45;;;;;;;;;;6227014;23;20001;-94
2023/04/08 00:31:05;;;;;;;20.70;9.45;;;;;;;;;;6222296;23;20019;-94
2023/04/08 00:33:32;;;;;;;22.73;8.35;;;;;;;;;;6217955;22;20435;-94
2023/04/08 00:36:02;;;;;;;20.58;9.55;;;;;;;;;;6194146;23;20032;-95
2023/04/08 00:38:31;;;;;;;19.15;9.25;;;;;;;;;;6194747;23;20096;-94
2023/04/08 00:41:00;;;;;;;17.65;8.95;;;;;;;;;;6219229;23;20008;-94
2023/04/08 00:43:27;;;;;;;22.13;8.50;;;;;;;;;;6218055;23;20378;-95
2023/04/08 00:45:55;;;;;;;18.00;9.40;;;;;;;;;;6193589;23;20335;-94
2023/04/08 00:48:32;;;;;;;;;;;;;;;;;;;;;
2023/04/08 00:51:02;;;;;;;20.52;10.13;;;;;;;;;;6219698;23;20051;-94
2023/04/08 00:56:17;;;;;;;17.75;9.27;;;;;;;;;;6196628;23;20420;-95
2023/04/08 00:58:44;;;;;;;22.48;9.20;;;;;;;;;;6193520;23;20021;-95
2023/04/08 01:01:22;;;;;;;17.63;9.52;;;;;;;;;;6217546;23;20027;-95
2023/04/08 01:03:57;;;;;;;19.67;9.90;;;;;;;;;;6217670;23;20009;-94
2023/04/08 01:06:41;;;;;;;20.40;10.53;;;;;;;;;;6216577;23;20004;-95
2023/04/08 01:09:08;;;;;;;22.30;10.80;;;;;;;;;;6218295;23;20300;-95
2023/04/08 01:11:35;;;;;;;22.65;10.85;;;;;;;;;;6192763;23;20013;-95
2023/04/08 01:14:04;;;;;;;19.10;9.98;;;;;;;;;;6219815;23;20005;-94
2023/04/08 01:16:43;;;;;;;;;;;;;;;;;;;;;
2023/04/08 01:19:14;;;;;;;22.83;10.73;;;;;;;;;;6218570;23;20039;-94
2023/04/08 01:21:41;;;;;;;20.77;10.15;;;;;;;;;;6217186;23;20178;-94
2023/04/08 01:24:17;;;;;;;20.38;10.57;;;;;;;;;;6192968;23;20035;-96
2023/04/08 01:26:44;;;;;;;20.83;10.05;;;;;;;;;;6218225;23;20009;-94
2023/04/08 01:29:13;;;;;;;22.67;10.98;;;;;;;;;;6218530;23;20005;-94
2023/04/08 01:31:40;;;;;;;20.50;10.82;;;;;;;;;;6218848;23;20316;-94
2023/04/08 01:34:16;;;;;;;22.98;12.05;;;;;;;;;;6193525;23;20020;-94
2023/04/08 01:36:44;;;;;;;22.35;10.70;;;;;;;;;;6216711;23;20511;-95
2023/04/08 01:39:11;;;;;;;22.73;11.25;;;;;;;;;;6194470;23;20016;-95
2023/04/08 01:41:37;;;;;;;24.92;11.27;;;;;;;;;;6221138;23;20443;-94
2023/04/08 01:44:05;;;;;;;25.73;11.43;;;;;;;;;;6220313;23;20506;-93
2023/04/08 01:46:45;;;;;;;23.13;11.93;;;;;;;;;;6197136;23;20005;-94
2023/04/08 01:49:17;;;;;;;28.35;11.15;;;;;;;;;;6221174;23;20008;-94
2023/04/08 01:51:48;;;;;;;23.70;11.60;;;;;;;;;;6219428;23;20004;-93
2023/04/08 01:54:15;;;;;;;28.08;11.77;;;;;;;;;;6195813;23;20024;-93
2023/04/08 01:57:08;;;;;;;24.95;11.80;;;;;;;;;;6221787;23;20004;-94
2023/04/08 01:59:45;;;;;;;30.95;12.18;;;;;;;;;;6216475;23;20013;-94
2023/04/08 02:02:14;;;;;;;30.17;13.05;;;;;;;;;;6225981;23;20059;-95
2023/04/08 02:04:45;;;;;;;30.42;13.57;;;;;;;;;;6222094;23;20019;-94
2023/04/08 02:07:12;;;;;;;27.80;11.98;;;;;;;;;;6197344;23;20043;-94
2023/04/08 02:09:38;;;;;;;29.15;12.82;;;;;;;;;;6224337;23;20000;-94
2023/04/08 02:12:04;;;;;;;24.85;12.10;;;;;;;;;;6199139;23;20021;-93
2023/04/08 02:14:31;;;;;;;29.55;13.45;;;;;;;;;;6198262;23;20039;-94
2023/04/08 02:17:05;;;;;;;35.88;13.88;;;;;;;;;;6197408;23;20009;-93
2023/04/08 02:19:44;;;;;;;25.52;12.88;;;;;;;;;;6221058;23;20005;-94
2023/04/08 02:22:23;;;;;;;34.80;13.90;;;;;;;;;;6195689;23;20093;-93
2023/04/08 02:24:49;;;;;;;26.80;12.95;;;;;;;;;;6221688;23;20005;-94
2023/04/08 02:27:18;;;;;;;32.83;15.10;;;;;;;;;;6222039;23;20005;-94
2023/04/08 02:29:49;;;;;;;28.10;12.77;;;;;;;;;;6198097;23;20009;-95
2023/04/08 02:32:15;;;;;;;32.08;13.88;;;;;;;;;;6222406;22;20135;-94
2023/04/08 02:34:42;;;;;;;31.00;14.93;;;;;;;;;;6195636;23;20048;-94
2023/04/08 02:37:09;;;;;;;29.67;13.98;;;;;;;;;;6222691;23;20008;-95
2023/04/08 02:39:36;;;;;;;29.98;13.57;;;;;;;;;;6197350;23;20023;-94
2023/04/08 02:42:04;;;;;;;29.10;13.50;;;;;;;;;;6221848;23;20560;-94
2023/04/08 02:44:34;;;;;;;31.25;13.48;;;;;;;;;;6223331;23;20013;-95
2023/04/08 02:47:26;;;;;;;26.30;13.50;;;;;;;;;;6219336;23;20115;-94
2023/04/08 02:49:54;;;;;;;26.17;13.00;;;;;;;;;;6222045;23;20001;-94
2023/04/08 02:52:20;;;;;;;27.13;13.23;;;;;;;;;;6223115;23;20056;-93
2023/04/08 02:54:46;;;;;;;30.50;14.35;;;;;;;;;;6223225;23;20009;-94
2023/04/08 02:57:12;;;;;;;29.17;13.73;;;;;;;;;;6196679;23;20246;-94
2023/04/08 02:59:40;;;;;;;28.40;12.98;;;;;;;;;;6198072;23;20047;-94
2023/04/08 03:02:06;;;;;;;30.02;14.57;;;;;;;;;;6221758;23;20343;-95
2023/04/08 03:04:33;;;;;;;33.25;15.05;;;;;;;;;;6223430;23;20378;-94
2023/04/08 03:06:59;;;;;;;32.10;13.55;;;;;;;;;;6196382;23;20008;-94
2023/04/08 03:09:36;;;;;;;32.38;15.02;;;;;;;;;;6220553;23;20009;-95
2023/04/08 03:12:02;;;;;;;38.35;16.23;;;;;;;;;;6196937;23;20012;-95
2023/04/08 03:14:30;;;;;;;43.83;16.20;;;;;;;;;;6222055;23;20009;-94
2023/04/08 03:16:56;;;;;;;37.08;16.63;;;;;;;;;;6196466;23;20039;-95
2023/04/08 03:19:23;;;;;;;32.58;14.70;;;;;;;;;;6220083;23;20011;-94
2023/04/08 03:21:52;;;;;;;32.03;15.05;;;;;;;;;;6194969;23;20012;-95
2023/04/08 03:24:18;;;;;;;35.30;16.05;;;;;;;;;;6196673;23;20147;-95
2023/04/08 03:26:44;;;;;;;33.10;15.40;;;;;;;;;;6221703;23;20016;-95
2023/04/08 03:29:10;;;;;;;33.75;16.65;;;;;;;;;;6221317;23;20001;-95
2023/04/08 03:31:36;;;;;;;38.88;17.02;;;;;;;;;;6220648;23;20024;-95
2023/04/08 03:34:09;;;;;;;36.80;16.42;;;;;;;;;;6196596;23;20051;-95
2023/04/08 03:36:35;;;;;;;38.00;16.15;;;;;;;;;;6196247;23;20068;-95
2023/04/08 03:39:04;;;;;;;37.85;15.98;;;;;;;;;;6195696;23;20073;-95
2023/04/08 03:41:30;;;;;;;36.60;15.88;;;;;;;;;;6197479;23;20023;-95
2023/04/08 03:43:57;;;;;;;34.05;16.10;;;;;;;;;;6219029;23;20020;-95
2023/04/08 03:46:23;;;;;;;38.92;17.02;;;;;;;;;;6195393;23;20008;-95
2023/04/08 03:48:49;;;;;;;43.63;18.60;;;;;;;;;;6195830;23;20004;-94
2023/04/08 03:51:16;;;;;;;48.08;18.42;;;;;;;;;;6194200;23;20028;-94
2023/04/08 03:53:42;;;;;;;37.75;17.27;;;;;;;;;;6192697;23;20031;-95
2023/04/08 03:56:08;;;;;;;37.95;17.67;;;;;;;;;;6219697;23;20000;-95
2023/04/08 03:58:35;;;;;;;39.22;17.13;;;;;;;;;;6194583;23;20013;-94
2023/04/08 04:01:01;;;;;;;38.63;18.33;;;;;;;;;;6219481;23;20038;-94
2023/04/08 04:03:28;;;;;;;45.95;18.35;;;;;;;;;;6218999;23;20015;-95
2023/04/08 04:05:57;;;;;;;40.50;17.40;;;;;;;;;;6194060;23;20068;-94
2023/04/08 04:08:23;;;;;;;36.72;17.13;;;;;;;;;;6218667;23;20016;-95
2023/04/08 04:10:50;;;;;;;41.10;17.70;;;;;;;;;;6194461;23;20095;-94
2023/04/08 04:13:18;;;;;;;41.25;18.83;;;;;;;;;;6194349;23;20115;-95
2023/04/08 04:15:47;;;;;;;45.17;17.42;;;;;;;;;;6218714;23;20049;-95
2023/04/08 04:18:33;;;;;;;39.55;16.65;;;;;;;;;;6195265;23;20155;-94
2023/04/08 04:20:59;;;;;;;41.13;17.27;;;;;;;;;;6215518;23;20087;-94
2023/04/08 04:23:28;;;;;;;40.92;17.70;;;;;;;;;;6218794;23;20032;-94
2023/04/08 04:26:07;;;;;;;42.25;18.10;;;;;;;;;;6194743;23;20013;-95
2023/04/08 04:28:44;;;;;;;38.17;16.38;;;;;;;;;;6193996;23;20039;-95
2023/04/08 04:31:21;;;;;;;42.97;16.85;;;;;;;;;;6220878;23;20008;-94
2023/04/08 04:34:00;;;;;;;44.00;18.50;;;;;;;;;;6220960;22;20017;-95
2023/04/08 04:36:26;;;;;;;42.97;17.42;;;;;;;;;;6219216;23;20024;-95
2023/04/08 04:38:53;;;;;;;42.42;18.75;;;;;;;;;;6218601;23;20009;-95
2023/04/08 04:41:20;;;;;;;37.22;16.83;;;;;;;;;;6194588;23;20019;-94
2023/04/08 04:43:55;;;;;;;37.55;16.17;;;;;;;;;;6219211;23;20068;-94
2023/04/08 04:46:21;;;;;;;38.00;17.33;;;;;;;;;;6221204;23;20019;-95
2023/04/08 04:48:47;;;;;;;36.70;17.25;;;;;;;;;;6220509;23;20019;-95
2023/04/08 04:51:13;;;;;;;36.03;17.60;;;;;;;;;;6221819;23;20009;-95
2023/04/08 04:53:48;;;;;;;40.30;17.58;;;;;;;;;;6220252;23;20032;-94
2023/04/08 04:56:17;;;;;;;37.33;17.30;;;;;;;;;;6219899;23;20079;-95
2023/04/08 04:58:44;;;;;;;43.28;18.10;;;;;;;;;;6196741;23;20474;-95
2023/04/08 05:01:13;;;;;;;49.42;19.50;;;;;;;;;;6196627;23;20072;-95
2023/04/08 05:03:39;;;;;;;48.95;19.83;;;;;;;;;;6220242;23;20015;-95
2023/04/08 05:06:05;;;;;;;40.28;20.10;;;;;;;;;;6193658;23;20020;-95
2023/04/08 05:08:37;;;;;;;43.45;17.67;;;;;;;;;;6219607;23;20016;-94
2023/04/08 05:11:08;;;;;;;44.40;19.85;;;;;;;;;;6196683;23;20031;-95
2023/04/08 05:13:37;;;;;;;45.05;19.98;;;;;;;;;;6220291;23;20031;-94
2023/04/08 05:16:03;;;;;;;45.05;20.55;;;;;;;;;;6220942;23;20091;-94
2023/04/08 05:18:29;;;;;;;43.13;18.48;;;;;;;;;;6196246;23;20036;-94
2023/04/08 05:20:56;;;;;;;49.25;20.58;;;;;;;;;;6194876;23;20009;-93
2023/04/08 05:23:25;;;;;;;51.75;20.35;;;;;;;;;;6219728;23;20005;-94
2023/04/08 05:25:51;;;;;;;50.17;20.27;;;;;;;;;;6220807;23;20032;-95
2023/04/08 05:28:17;;;;;;;53.30;21.67;;;;;;;;;;6220330;23;20008;-94
2023/04/08 05:30:49;;;;;;;49.50;20.17;;;;;;;;;;6196109;23;20127;-94
2023/04/08 05:33:25;;;;;;;54.53;21.60;;;;;;;;;;6223044;22;20019;-95
2023/04/08 05:36:20;;;;;;;55.83;22.02;;;;;;;;;;6220917;23;20074;-94
2023/04/08 05:39:06;;;;;;;50.15;20.00;;;;;;;;;;6195854;23;20008;-94
2023/04/08 05:41:34;;;;;;;48.22;20.65;;;;;;;;;;6191496;23;20431;-94
2023/04/08 05:44:01;;;;;;;53.58;20.58;;;;;;;;;;6195600;23;20399;-94
2023/04/08 05:46:31;;;;;;;57.55;21.10;;;;;;;;;;6221895;23;20083;-94
2023/04/08 05:48:58;;;;;;;51.97;20.85;;;;;;;;;;6197032;23;20050;-94
2023/04/08 05:51:25;;;;;;;51.30;21.00;;;;;;;;;;6196682;23;20435;-94
2023/04/08 05:53:54;;;;;;;50.30;22.30;;;;;;;;;;6196743;23;20004;-94
2023/04/08 05:56:20;;;;;;;48.90;20.42;;;;;;;;;;6222528;23;20020;-94
2023/04/08 05:58:54;;;;;;;45.72;20.80;;;;;;;;;;6232339;23;20007;-94
2023/04/08 06:01:27;;;;;;;52.28;20.67;;;;;;;;;;6237453;23;20005;-94
2023/04/08 06:03:55;;;;;;;40.33;18.67;;;;;;;;;;6209968;23;20021;-95
2023/04/08 06:06:21;;;;;;;41.30;18.15;;;;;;;;;;6233968;23;19993;-93
2023/04/08 06:08:47;;;;;;;45.63;18.90;;;;;;;;;;6234499;23;20005;-94
2023/04/08 06:11:46;;;;;;;38.30;18.92;;;;;;;;;;6232486;23;20080;-94
2023/04/08 06:17:02;;;;;;;47.33;20.73;;;;;;;;;;6224266;22;20095;-93
2023/04/08 06:19:28;;;;;;;41.53;18.23;;;;;;;;;;6138260;23;20020;-93
2023/04/08 06:21:57;;;;;;;44.03;18.85;;;;;;;;;;6135507;23;20016;-93
2023/04/08 06:24:36;;;;;;;41.88;19.38;;;;;;;;;;6136259;23;20092;-93
2023/04/08 06:27:21;;;;;;;34.25;17.15;;;;;;;;;;6188759;23;20001;-94
2023/04/08 06:30:01;;;;;;;34.78;15.52;;;;;;;;;;6191157;23;20019;-94
2023/04/08 06:32:27;;;;;;;35.40;14.50;;;;;;;;;;6139321;23;20005;-96
2023/04/08 06:34:53;;;;;;;31.77;15.70;;;;;;;;;;6140766;23;20017;-96
2023/04/08 06:37:23;;;;;;;35.28;14.27;;;;;;;;;;6188990;23;20011;-96
2023/04/08 06:39:50;;;;;;;26.70;13.63;;;;;;;;;;6190185;23;20015;-95
2023/04/08 06:42:16;;;;;;;25.75;12.70;;;;;;;;;;6186984;23;20059;-95
2023/04/08 06:44:42;;;;;;;22.02;11.35;;;;;;;;;;6138257;23;20436;-94
2023/04/08 06:47:21;;;;;;;23.83;12.90;;;;;;;;;;6138626;23;20009;-94
2023/04/08 06:49:47;;;;;;;20.83;11.15;;;;;;;;;;6185223;23;20035;-94
2023/04/08 06:52:13;;;;;;;20.65;10.82;;;;;;;;;;6191631;23;20005;-95
2023/04/08 06:54:59;;;;;;;;;;;;;;;;;;;;;
2023/04/08 06:57:26;;;;;;;21.77;11.07;;;;;;;;;;6139742;23;20028;-95
2023/04/08 06:59:52;;;;;;;22.70;12.68;;;;;;;;;;6193060;23;20001;-95
2023/04/08 07:02:19;;;;;;;22.63;10.93;;;;;;;;;;6140024;23;20009;-93
2023/04/08 07:04:45;;;;;;;19.02;10.60;;;;;;;;;;6163156;23;20012;-93
2023/04/08 07:07:11;;;;;;;19.73;10.55;;;;;;;;;;6138918;23;20350;-91
2023/04/08 07:09:37;;;;;;;20.75;10.65;;;;;;;;;;6165418;23;20009;-92
2023/04/08 07:12:04;;;;;;;20.73;11.10;;;;;;;;;;6138102;23;20035;-92
2023/04/08 07:14:33;;;;;;;18.58;10.60;;;;;;;;;;6143286;23;20017;-92
2023/04/08 07:16:59;;;;;;;20.00;10.52;;;;;;;;;;6140252;22;20020;-93
2023/04/08 07:19:26;;;;;;;19.92;10.60;;;;;;;;;;6190080;23;20378;-93
2023/04/08 07:21:52;;;;;;;20.48;10.85;;;;;;;;;;6190807;23;20343;-94
2023/04/08 07:24:18;;;;;;;15.70;9.48;;;;;;;;;;6189823;23;20024;-94
2023/04/08 07:26:45;;;;;;;18.70;10.60;;;;;;;;;;6190627;23;20009;-94
2023/04/08 07:29:12;;;;;;;19.33;10.63;;;;;;;;;;6190560;23;20011;-94
2023/04/08 07:31:38;;;;;;;21.40;10.38;;;;;;;;;;6190986;23;20427;-94
2023/04/08 07:34:04;;;;;;;19.23;10.52;;;;;;;;;;6191709;23;20036;-95
2023/04/08 07:36:30;;;;;;;19.48;10.45;;;;;;;;;;6216184;23;20005;-95
2023/04/08 07:39:15;;;;;;;19.17;11.13;;;;;;;;;;6191651;23;20039;-94
2023/04/08 07:41:41;;;;;;;18.17;10.43;;;;;;;;;;6215206;23;20012;-94
2023/04/08 07:44:08;;;;;;;19.45;10.98;;;;;;;;;;6214956;23;20020;-93
2023/04/08 07:46:37;;;;;;;18.80;9.15;;;;;;;;;;6192577;23;20087;-94
2023/04/08 07:49:07;;;;;;;19.15;9.98;;;;;;;;;;6192974;23;20043;-94
2023/04/08 07:51:33;;;;;;;19.17;10.80;;;;;;;;;;6193613;23;20012;-94
2023/04/08 07:54:00;;;;;;;16.90;10.20;;;;;;;;;;6192041;23;20032;-94
2023/04/08 07:56:26;;;;;;;21.73;10.73;;;;;;;;;;6190734;23;20070;-94
2023/04/08 07:58:53;;;;;;;18.65;10.52;;;;;;;;;;6190000;23;20059;-93
2023/04/08 08:01:20;;;;;;;21.42;11.27;;;;;;;;;;6190088;23;20017;-93
2023/04/08 08:03:47;;;;;;;17.17;10.40;;;;;;;;;;6215624;23;20005;-93
2023/04/08 08:06:20;;;;;;;22.98;10.43;;;;;;;;;;6214683;23;20005;-94
2023/04/08 08:08:46;;;;;;;20.40;10.23;;;;;;;;;;6189105;23;20008;-94
2023/04/08 08:11:13;;;;;;;21.60;10.30;;;;;;;;;;6188935;23;20005;-95
2023/04/08 08:13:39;;;;;;;16.08;10.07;;;;;;;;;;6213875;23;20012;-93
2023/04/08 08:16:07;;;;;;;19.50;10.07;;;;;;;;;;6189727;23;20028;-93
2023/04/08 08:18:34;;;;;;;22.80;10.13;;;;;;;;;;6192998;22;20100;-93
2023/04/08 08:21:01;;;;;;;17.63;10.20;;;;;;;;;;6193821;23;20023;-93
2023/04/08 08:23:27;;;;;;;25.08;10.85;;;;;;;;;;6191389;23;20028;-92
2023/04/08 08:26:00;;;;;;;20.85;11.05;;;;;;;;;;6190963;23;20028;-93
2023/04/08 08:28:30;;;;;;;18.90;10.65;;;;;;;;;;6189730;23;20024;-93
2023/04/08 08:30:56;;;;;;;25.70;12.13;;;;;;;;;;6216043;23;20040;-93
2023/04/08 08:33:22;;;;;;;23.17;11.65;;;;;;;;;;6216597;23;20009;-93
2023/04/08 08:35:48;;;;;;;25.95;13.15;;;;;;;;;;6215814;23;20009;-93
2023/04/08 08:38:16;;;;;;;22.38;12.48;;;;;;;;;;6190912;23;20039;-94
2023/04/08 08:40:43;;;;;;;27.15;13.15;;;;;;;;;;6191221;23;20443;-93
2023/04/08 08:43:09;;;;;;;29.33;13.38;;;;;;;;;;6213449;23;20005;-94
2023/04/08 08:45:42;;;;;;;22.20;11.93;;;;;;;;;;6188000;23;20017;-93
2023/04/08 08:48:08;;;;;;;21.77;11.40;;;;;;;;;;6187889;23;20009;-93
2023/04/08 08:50:40;;;;;;;17.50;10.13;;;;;;;;;;6216603;23;20001;-93
2023/04/08 08:53:06;;;;;;;21.33;12.00;;;;;;;;;;6190614;23;20426;-93
2023/04/08 08:55:32;;;;;;;21.23;11.02;;;;;;;;;;6190318;23;20013;-93
2023/04/08 08:58:00;;;;;;;22.27;10.82;;;;;;;;;;6189251;23;20074;-93
2023/04/08 09:00:43;;;;;;;23.27;9.75;;;;;;;;;;6215464;23;20434;-93
2023/04/08 09:03:23;;;;;;;17.55;10.07;;;;;;;;;;6219971;23;20298;-93
2023/04/08 09:05:55;;;;;;;19.77;10.52;;;;;;;;;;6215209;23;20051;-92
2023/04/08 09:08:26;;;;;;;19.83;10.27;;;;;;;;;;6216843;23;20008;-93
2023/04/08 09:10:53;;;;;;;15.13;9.50;;;;;;;;;;6217847;23;20004;-93
2023/04/08 09:13:20;;;;;;;18.48;10.00;;;;;;;;;;6222642;23;20012;-93
2023/04/08 09:16:04;;;;;;;18.63;9.75;;;;;;;;;;6196857;23;20036;-92
2023/04/08 09:18:45;;;;;;;14.60;8.20;;;;;;;;;;6220343;22;20031;-92
2023/04/08 09:21:13;;;;;;;16.70;9.00;;;;;;;;;;6219989;23;20012;-93
2023/04/08 09:23:40;;;;;;;16.30;8.52;;;;;;;;;;6213956;23;20004;-91
2023/04/08 09:26:08;;;;;;;15.48;7.78;;;;;;;;;;6213692;23;20001;-92
2023/04/08 09:28:39;;;;;;;16.13;8.63;;;;;;;;;;6211982;23;20000;-92
2023/04/08 09:31:22;;;;;;;17.75;9.30;;;;;;;;;;6220604;23;20009;-92
2023/04/08 09:33:52;;;;;;;15.35;8.48;;;;;;;;;;6219897;23;20005;-93
2023/04/08 09:36:20;;;;;;;19.80;9.88;;;;;;;;;;6219296;23;20416;-94
2023/04/08 09:41:52;;;;;;;16.05;9.02;;;;;;;;;;6134737;23;20017;-94
2023/04/08 09:44:32;;;;;;;15.93;8.02;;;;;;;;;;6183516;23;20120;-95
2023/04/08 09:47:08;;;;;;;19.00;8.38;;;;;;;;;;6219572;23;20064;-94
2023/04/08 09:49:57;;;;;;;;;;;;;;;;;;6219802;23;20004;-94
2023/04/08 09:52:53;;;;;;;14.70;7.57;;;;;;;;;;6231228;22;19899;-93
2023/04/08 09:55:47;;;;;;;14.05;7.88;;;;;;;;;;6195612;23;20017;-95
2023/04/08 09:58:28;;;;;;;16.80;7.22;;;;;;;;;;6165933;23;20009;-95
2023/04/08 10:00:54;;;;;;;17.48;9.48;;;;;;;;;;6186259;23;20008;-93
2023/04/08 10:03:36;;;;;;;18.92;8.63;;;;;;;;;;6136463;23;20073;-96
2023/04/08 10:06:03;;;;;;;18.48;8.85;;;;;;;;;;6167467;23;20033;-93
2023/04/08 10:08:31;;;;;;;19.67;9.82;;;;;;;;;;6162855;23;20009;-93
2023/04/08 10:11:20;;;;;;;;;;;;;;;;;;;;;
2023/04/08 10:14:33;;;;;;;;;;;;;;;;;;;;;
2023/04/08 10:17:35;;;;;;;19.95;10.82;;;;;;;;;;6144108;23;20013;-95
2023/04/08 10:20:12;;;;;;;36.83;19.08;;;;;;;;;;6186451;23;20131;-94
2023/04/08 10:22:57;;;;;;;27.42;11.35;;;;;;;;;;6170490;23;20073;-94
2023/04/08 10:25:34;;;;;;;19.35;10.27;;;;;;;;;;6186289;23;20350;-96
2023/04/08 10:28:22;;;;;;;23.05;11.00;;;;;;;;;;6196649;23;20158;-95
2023/04/08 10:30:52;;;;;;;22.42;11.63;;;;;;;;;;6217814;23;20078;-93
2023/04/08 10:33:24;;;;;;;24.40;11.70;;;;;;;;;;6217534;23;20454;-94
2023/04/08 10:35:53;;;;;;;23.20;11.25;;;;;;;;;;6217164;23;20416;-94
2023/04/08 10:38:20;;;;;;;23.42;11.52;;;;;;;;;;6222739;23;20016;-94
2023/04/08 10:40:48;;;;;;;23.10;11.68;;;;;;;;;;6222180;23;20081;-95
2023/04/08 10:43:17;;;;;;;19.35;10.50;;;;;;;;;;6213815;23;20011;-95
2023/04/08 10:45:45;;;;;;;23.55;11.77;;;;;;;;;;6217959;23;20340;-95
2023/04/08 10:48:31;;;;;;;27.42;11.90;;;;;;;;;;6191729;23;20020;-95
2023/04/08 10:50:58;;;;;;;28.98;12.75;;;;;;;;;;6215665;23;20009;-95
2023/04/08 10:53:28;;;;;;;23.73;10.90;;;;;;;;;;6214325;23;20008;-94
2023/04/08 10:56:03;;;;;;;24.45;11.15;;;;;;;;;;6216027;23;20073;-94
2023/04/08 10:58:30;;;;;;;23.83;11.57;;;;;;;;;;6216580;23;20015;-94
2023/04/08 11:00:56;;;;;;;24.63;11.68;;;;;;;;;;6216673;23;20022;-94
2023/04/08 11:03:22;;;;;;;22.80;11.20;;;;;;;;;;6193171;23;20008;-95
2023/04/08 11:06:04;;;;;;;24.30;12.23;;;;;;;;;;6190040;23;20008;-95
2023/04/08 11:08:31;;;;;;;24.80;12.15;;;;;;;;;;6219128;23;20004;-95
2023/04/08 11:11:09;;;;;;;26.55;12.35;;;;;;;;;;6219626;23;20013;-95
2023/04/08 11:13:36;;;;;;;28.42;13.50;;;;;;;;;;6220888;23;20070;-94
2023/04/08 11:16:04;;;;;;;29.15;13.45;;;;;;;;;;6194431;23;20016;-95
2023/04/08 11:18:44;;;;;;;36.22;16.00;;;;;;;;;;6217969;22;20106;-94
2023/04/08 11:21:11;;;;;;;31.48;14.85;;;;;;;;;;6219713;23;20012;-95
2023/04/08 11:23:37;;;;;;;33.80;14.88;;;;;;;;;;6191179;23;20008;-95
2023/04/08 11:26:03;;;;;;;32.00;13.55;;;;;;;;;;6190504;23;20072;-95
2023/04/08 11:28:30;;;;;;;29.02;13.68;;;;;;;;;;6219783;23;20005;-95
2023/04/08 11:30:56;;;;;;;25.15;12.43;;;;;;;;;;6198125;23;20056;-94
2023/04/08 11:33:26;;;;;;;22.10;10.13;;;;;;;;;;6197000;23;20131;-94
2023/04/08 11:35:55;;;;;;;29.10;13.23;;;;;;;;;;6214352;23;20015;-94
2023/04/08 11:38:47;;;;;;;29.98;12.38;;;;;;;;;;6193062;23;20381;-92
2023/04/08 11:41:47;;;;;;;27.50;13.60;;;;;;;;;;6169484;23;20019;-93
2023/04/08 11:44:14;;;;;;;24.85;12.20;;;;;;;;;;6106232;23;20019;-94
2023/04/08 11:46:41;;;;;;;27.92;13.00;;;;;;;;;;6115554;23;20565;-95
2023/04/08 11:49:09;;;;;;;29.45;14.27;;;;;;;;;;6187550;23;20015;-94
2023/04/08 11:51:55;;;;;;;31.58;14.05;;;;;;;;;;6190598;23;20013;-94
2023/04/08 11:54:33;;;;;;;24.52;12.25;;;;;;;;;;6216251;23;20016;-95
2023/04/08 11:57:03;;;;;;;24.75;13.93;;;;;;;;;;6195077;23;20095;-95
2023/04/08 12:00:17;;;;;;;26.35;14.25;;;;;;;;;;6220835;23;20004;-94
2023/04/08 12:02:27;;;;;;;28.33;14.38;;;;;;;;;;6196430;23;20102;-94
2023/04/08 12:04:54;;;;;;;26.27;13.23;;;;;;;;;;6191414;23;20020;-95
2023/04/08 12:07:29;;;;;;;28.00;13.95;;;;;;;;;;6192942;23;20004;-94
2023/04/08 12:09:55;;;;;;;25.30;13.07;;;;;;;;;;6192991;23;20197;-93
2023/04/08 12:12:22;;;;;;;25.48;13.07;;;;;;;;;;6191374;23;20008;-94
2023/04/08 12:14:57;;;;;;;25.63;13.50;;;;;;;;;;6195610;23;20008;-94
2023/04/08 12:17:25;;;;;;;26.00;12.65;;;;;;;;;;6215047;23;20009;-94
2023/04/08 12:19:51;;;;;;;24.85;12.27;;;;;;;;;;6189344;22;20024;-93
2023/04/08 12:22:23;;;;;;;28.25;13.50;;;;;;;;;;6189838;23;20087;-94
2023/04/08 12:24:49;;;;;;;26.73;13.85;;;;;;;;;;6188564;23;20012;-94
2023/04/08 12:27:22;;;;;;;25.10;13.02;;;;;;;;;;6190864;23;20012;-95
2023/04/08 12:29:48;;;;;;;29.40;14.35;;;;;;;;;;6189762;23;20023;-94
2023/04/08 12:32:18;;;;;;;23.80;12.35;;;;;;;;;;6190939;23;20353;-94
2023/04/08 12:34:47;;;;;;;23.02;12.38;;;;;;;;;;6189049;23;20012;-94
2023/04/08 12:37:13;;;;;;;20.38;11.02;;;;;;;;;;6190006;23;20308;-94
2023/04/08 12:39:39;;;;;;;22.38;12.13;;;;;;;;;;6189382;23;20009;-94
2023/04/08 12:42:08;;;;;;;24.45;13.90;;;;;;;;;;6215651;23;20466;-88
2023/04/08 12:44:34;;;;;;;26.45;13.30;;;;;;;;;;6189619;23;20012;-88
2023/04/08 12:47:14;;;;;;;22.08;11.52;;;;;;;;;;6213812;23;20008;-95
2023/04/08 12:49:40;;;;;;;20.88;10.73;;;;;;;;;;6192013;23;20351;-94
2023/04/08 12:52:07;;;;;;;17.05;9.52;;;;;;;;;;6191972;23;20088;-89
2023/04/08 12:54:33;;;;;;;14.98;9.10;;;;;;;;;;6190272;23;20066;-89
2023/04/08 12:57:00;;;;;;;19.77;9.80;;;;;;;;;;6212277;23;20005;-89
2023/04/08 12:59:32;;;;;;;19.00;10.15;;;;;;;;;;6187393;23;20260;-89
2023/04/08 13:01:58;;;;;;;17.92;9.55;;;;;;;;;;6191026;23;20013;-89
2023/04/08 13:04:34;;;;;;;18.02;10.27;;;;;;;;;;6188289;23;20087;-90
2023/04/08 13:07:00;;;;;;;18.27;9.50;;;;;;;;;;6190880;23;20008;-89
2023/04/08 13:09:29;;;;;;;19.05;10.10;;;;;;;;;;6189278;23;20047;-89
2023/04/08 13:11:58;;;;;;;17.13;9.77;;;;;;;;;;6191415;23;20001;-89
2023/04/08 13:14:25;;;;;;;19.13;10.20;;;;;;;;;;6212536;23;20020;-89
2023/04/08 13:16:59;;;;;;;16.95;10.13;;;;;;;;;;6216065;23;20051;-88
2023/04/08 13:19:26;;;;;;;17.92;9.57;;;;;;;;;;6213445;22;20020;-89
2023/04/08 13:21:52;;;;;;;19.75;10.23;;;;;;;;;;6215245;23;20119;-89
2023/04/08 13:24:24;;;;;;;19.35;11.02;;;;;;;;;;6187181;23;20377;-90
2023/04/08 13:26:50;;;;;;;19.70;11.82;;;;;;;;;;6188965;23;20410;-89
2023/04/08 13:29:16;;;;;;;20.65;10.63;;;;;;;;;;6214207;23;20019;-90
2023/04/08 13:31:45;;;;;;;18.95;10.80;;;;;;;;;;6189626;23;20028;-90
2023/04/08 13:34:21;;;;;;;21.98;11.38;;;;;;;;;;6213015;23;20019;-90
2023/04/08 13:36:47;;;;;;;21.13;11.85;;;;;;;;;;6191354;23;20354;-90
2023/04/08 13:39:13;;;;;;;22.48;12.93;;;;;;;;;;6213398;23;20020;-90
2023/04/08 13:41:44;;;;;;;19.17;11.70;;;;;;;;;;6212674;23;20569;-89
2023/04/08 13:44:12;;;;;;;17.77;12.10;;;;;;;;;;6212448;23;20338;-89
2023/04/08 13:46:41;;;;;;;24.52;13.57;;;;;;;;;;6211044;23;20032;-90
2023/04/08 13:49:08;;;;;;;20.30;12.27;;;;;;;;;;6187221;23;20013;-90
2023/04/08 13:51:34;;;;;;;19.30;12.30;;;;;;;;;;6185048;23;20013;-89
2023/04/08 13:54:00;;;;;;;20.45;12.13;;;;;;;;;;6214187;23;20094;-89
2023/04/08 13:56:27;;;;;;;20.08;12.45;;;;;;;;;;6211723;23;20343;-89
2023/04/08 13:58:53;;;;;;;19.60;12.35;;;;;;;;;;6214496;23;20009;-90
2023/04/08 14:01:21;;;;;;;22.42;12.13;;;;;;;;;;6211752;23;20398;-89
2023/04/08 14:03:56;;;;;;;18.50;11.60;;;;;;;;;;6212986;23;20013;-89
2023/04/08 14:06:25;;;;;;;18.88;11.63;;;;;;;;;;6210534;23;20005;-90
2023/04/08 14:08:59;;;;;;;20.90;11.82;;;;;;;;;;6188730;23;20335;-89
2023/04/08 14:11:25;;;;;;;19.50;11.00;;;;;;;;;;6212041;23;20012;-90
2023/04/08 14:13:51;;;;;;;16.60;11.20;;;;;;;;;;6213667;23;20005;-90
2023/04/08 14:16:18;;;;;;;17.75;12.82;;;;;;;;;;6213332;23;20009;-90
2023/04/08 14:18:47;;;;;;;18.38;12.63;;;;;;;;;;6216367;22;20407;-90
2023/04/08 14:21:14;;;;;;;23.98;12.15;;;;;;;;;;6188902;23;20017;-89
2023/04/08 14:23:41;;;;;;;22.30;12.57;;;;;;;;;;6187276;23;20019;-90
2023/04/08 14:26:14;;;;;;;19.77;12.55;;;;;;;;;;6188109;23;20013;-90
2023/04/08 14:28:49;;;;;;;21.17;13.25;;;;;;;;;;6211068;23;20004;-90
2023/04/08 14:31:16;;;;;;;20.98;12.10;;;;;;;;;;6190946;23;20012;-90
2023/04/08 14:33:51;;;;;;;23.08;13.07;;;;;;;;;;6213880;23;20013;-90
2023/04/08 14:36:17;;;;;;;17.43;12.93;;;;;;;;;;6212382;23;20004;-90
2023/04/08 14:38:44;;;;;;;21.40;11.98;;;;;;;;;;6188036;23;20017;-90
2023/04/08 14:41:25;;;;;;;20.17;13.73;;;;;;;;;;6211722;23;20008;-91
2023/04/08 14:43:52;;;;;;;20.35;12.95;;;;;;;;;;6212075;23;20117;-90
2023/04/08 14:46:18;;;;;;;23.25;12.90;;;;;;;;;;6187028;23;20008;-90
2023/04/08 14:48:47;;;;;;;26.70;14.38;;;;;;;;;;6214658;23;20007;-90
2023/04/08 14:51:26;;;;;;;21.10;14.48;;;;;;;;;;6190994;23;20103;-90
2023/04/08 14:53:52;;;;;;;26.15;13.73;;;;;;;;;;6189296;23;20095;-90